sensor_id;sensor_type;location;lat;lon;timestamp;temperature;humidity
53152;DHT22;39234;53.158;6.322;2022-09-01T00:01:46;13.60;99.90
53152;DHT22;39234;53.158;6.322;2022-09-01T00:04:15;14.00;99.90
53152;DHT22;39234;53.158;6.322;2022-09-01T00:06:42;13.40;99.90
53152;DHT22;39234;53.158;6.322;2022-09-01T00:09:11;13.40;99.90
53152;DHT22;39234;53.158;6.322;2022-09-01T00:11:41;14.30;99.90
53152;DHT22;39234;53.158;6.322;2022-09-01T00:14:08;13.60;99.90
53152;DHT22;39234;53.158;6.322;2022-09-01T00:16:34;13.80;99.90
53152;DHT22;39234;53.158;6.322;2022-09-01T00:19:01;13.90;99.90
53152;DHT22;39234;53.158;6.322;2022-09-01T00:21:30;13.80;99.90
53152;DHT22;39234;53.158;6.322;2022-09-01T00:23:56;14.00;99.90
53152;DHT22;39234;53.158;6.322;2022-09-01T00:26:22;13.90;99.90
53152;DHT22;39234;53.158;6.322;2022-09-01T00:28:48;14.10;99.90
53152;DHT22;39234;53.158;6.322;2022-09-01T00:31:15;13.80;99.90
53152;DHT22;39234;53.158;6.322;2022-09-01T00:33:41;14.00;99.90
53152;DHT22;39234;53.158;6.322;2022-09-01T00:36:07;15.00;99.90
53152;DHT22;39234;53.158;6.322;2022-09-01T00:38:33;13.80;99.90
53152;DHT22;39234;53.158;6.322;2022-09-01T00:41:00;14.20;99.90
53152;DHT22;39234;53.158;6.322;2022-09-01T00:43:48;13.80;99.90
53152;DHT22;39234;53.158;6.322;2022-09-01T00:46:20;14.00;99.90
53152;DHT22;39234;53.158;6.322;2022-09-01T00:48:52;14.10;99.90
53152;DHT22;39234;53.158;6.322;2022-09-01T00:51:18;14.20;99.90
53152;DHT22;39234;53.158;6.322;2022-09-01T00:53:44;14.00;99.90
53152;DHT22;39234;53.158;6.322;2022-09-01T00:56:11;14.00;99.90
53152;DHT22;39234;53.158;6.322;2022-09-01T00:58:38;14.00;99.90
53152;DHT22;39234;53.158;6.322;2022-09-01T01:01:08;14.90;99.90
53152;DHT22;39234;53.158;6.322;2022-09-01T01:03:34;14.40;99.90
53152;DHT22;39234;53.158;6.322;2022-09-01T01:06:03;14.00;99.90
53152;DHT22;39234;53.158;6.322;2022-09-01T01:08:33;14.30;99.90
53152;DHT22;39234;53.158;6.322;2022-09-01T01:11:01;14.10;99.90
53152;DHT22;39234;53.158;6.322;2022-09-01T01:13:27;14.00;99.90
53152;DHT22;39234;53.158;6.322;2022-09-01T01:15:57;14.10;99.90
53152;DHT22;39234;53.158;6.322;2022-09-01T01:18:24;14.00;99.90
53152;DHT22;39234;53.158;6.322;2022-09-01T01:21:07;14.00;99.90
53152;DHT22;39234;53.158;6.322;2022-09-01T01:26:51;13.90;99.90
53152;DHT22;39234;53.158;6.322;2022-09-01T01:29:17;13.90;99.90
53152;DHT22;39234;53.158;6.322;2022-09-01T01:31:44;13.90;99.90
53152;DHT22;39234;53.158;6.322;2022-09-01T01:34:12;14.00;99.90
53152;DHT22;39234;53.158;6.322;2022-09-01T01:36:39;13.90;99.90
53152;DHT22;39234;53.158;6.322;2022-09-01T01:39:15;13.90;99.90
53152;DHT22;39234;53.158;6.322;2022-09-01T01:41:43;13.90;99.90
53152;DHT22;39234;53.158;6.322;2022-09-01T01:44:14;14.00;99.90
53152;DHT22;39234;53.158;6.322;2022-09-01T01:46:43;13.90;99.90
53152;DHT22;39234;53.158;6.322;2022-09-01T01:49:11;13.90;99.90
53152;DHT22;39234;53.158;6.322;2022-09-01T01:51:39;13.70;99.90
53152;DHT22;39234;53.158;6.322;2022-09-01T01:54:06;13.90;99.90
53152;DHT22;39234;53.158;6.322;2022-09-01T01:56:33;13.90;99.90
53152;DHT22;39234;53.158;6.322;2022-09-01T01:59:04;14.10;99.90
53152;DHT22;39234;53.158;6.322;2022-09-01T02:01:31;14.10;99.90
53152;DHT22;39234;53.158;6.322;2022-09-01T02:03:58;14.00;99.90
53152;DHT22;39234;53.158;6.322;2022-09-01T02:06:26;14.00;99.90
53152;DHT22;39234;53.158;6.322;2022-09-01T02:08:54;14.10;99.90
53152;DHT22;39234;53.158;6.322;2022-09-01T02:11:24;14.00;99.90
53152;DHT22;39234;53.158;6.322;2022-09-01T02:13:54;16.00;99.90
53152;DHT22;39234;53.158;6.322;2022-09-01T02:16:21;14.00;99.90
53152;DHT22;39234;53.158;6.322;2022-09-01T02:18:47;13.90;99.90
53152;DHT22;39234;53.158;6.322;2022-09-01T02:21:15;14.00;99.90
53152;DHT22;39234;53.158;6.322;2022-09-01T02:23:51;13.90;99.90
53152;DHT22;39234;53.158;6.322;2022-09-01T02:26:33;13.90;99.90
53152;DHT22;39234;53.158;6.322;2022-09-01T02:29:01;14.10;99.90
53152;DHT22;39234;53.158;6.322;2022-09-01T02:31:30;14.00;99.90
53152;DHT22;39234;53.158;6.322;2022-09-01T02:33:57;13.90;99.90
53152;DHT22;39234;53.158;6.322;2022-09-01T02:36:23;14.00;99.90
53152;DHT22;39234;53.158;6.322;2022-09-01T02:38:50;14.00;99.90
53152;DHT22;39234;53.158;6.322;2022-09-01T02:41:17;13.90;99.90
53152;DHT22;39234;53.158;6.322;2022-09-01T02:43:48;13.90;99.90
53152;DHT22;39234;53.158;6.322;2022-09-01T02:46:14;13.90;99.90
53152;DHT22;39234;53.158;6.322;2022-09-01T02:48:41;13.90;99.90
53152;DHT22;39234;53.158;6.322;2022-09-01T02:51:14;13.90;99.90
53152;DHT22;39234;53.158;6.322;2022-09-01T02:53:40;14.00;99.90
53152;DHT22;39234;53.158;6.322;2022-09-01T02:56:08;13.80;99.90
53152;DHT22;39234;53.158;6.322;2022-09-01T02:58:40;14.30;99.90
53152;DHT22;39234;53.158;6.322;2022-09-01T03:01:17;14.00;99.90
53152;DHT22;39234;53.158;6.322;2022-09-01T03:03:52;14.20;99.90
53152;DHT22;39234;53.158;6.322;2022-09-01T03:06:18;14.20;99.90
53152;DHT22;39234;53.158;6.322;2022-09-01T03:08:49;14.10;99.90
53152;DHT22;39234;53.158;6.322;2022-09-01T03:11:16;14.10;99.90
53152;DHT22;39234;53.158;6.322;2022-09-01T03:13:43;14.10;99.90
53152;DHT22;39234;53.158;6.322;2022-09-01T03:16:10;14.20;99.90
53152;DHT22;39234;53.158;6.322;2022-09-01T03:18:36;14.10;99.90
53152;DHT22;39234;53.158;6.322;2022-09-01T03:21:03;14.10;99.90
53152;DHT22;39234;53.158;6.322;2022-09-01T03:23:30;14.00;99.90
53152;DHT22;39234;53.158;6.322;2022-09-01T03:25:57;14.20;99.90
53152;DHT22;39234;53.158;6.322;2022-09-01T03:28:23;14.00;99.90
53152;DHT22;39234;53.158;6.322;2022-09-01T03:30:51;14.00;99.90
53152;DHT22;39234;53.158;6.322;2022-09-01T03:33:19;14.00;99.90
53152;DHT22;39234;53.158;6.322;2022-09-01T03:35:45;14.00;99.90
53152;DHT22;39234;53.158;6.322;2022-09-01T03:38:11;14.00;99.90
53152;DHT22;39234;53.158;6.322;2022-09-01T03:40:38;14.00;99.90
53152;DHT22;39234;53.158;6.322;2022-09-01T03:43:06;14.00;99.90
53152;DHT22;39234;53.158;6.322;2022-09-01T03:45:35;14.00;99.90
53152;DHT22;39234;53.158;6.322;2022-09-01T03:48:07;14.00;99.90
53152;DHT22;39234;53.158;6.322;2022-09-01T03:50:39;14.10;99.90
53152;DHT22;39234;53.158;6.322;2022-09-01T03:53:11;13.90;99.90
53152;DHT22;39234;53.158;6.322;2022-09-01T03:55:37;14.00;99.90
53152;DHT22;39234;53.158;6.322;2022-09-01T03:58:06;13.90;99.90
53152;DHT22;39234;53.158;6.322;2022-09-01T04:00:39;13.70;99.90
53152;DHT22;39234;53.158;6.322;2022-09-01T04:03:07;13.80;99.90
53152;DHT22;39234;53.158;6.322;2022-09-01T04:05:35;13.90;99.90
53152;DHT22;39234;53.158;6.322;2022-09-01T04:08:05;13.80;99.90
53152;DHT22;39234;53.158;6.322;2022-09-01T04:10:33;13.80;99.90
53152;DHT22;39234;53.158;6.322;2022-09-01T04:13:00;13.70;99.90
53152;DHT22;39234;53.158;6.322;2022-09-01T04:15:26;13.70;99.90
53152;DHT22;39234;53.158;6.322;2022-09-01T04:17:53;13.30;99.90
53152;DHT22;39234;53.158;6.322;2022-09-01T04:20:41;13.70;99.90
53152;DHT22;39234;53.158;6.322;2022-09-01T04:23:30;13.80;99.90
53152;DHT22;39234;53.158;6.322;2022-09-01T04:26:04;13.50;99.90
53152;DHT22;39234;53.158;6.322;2022-09-01T04:28:35;13.60;99.90
53152;DHT22;39234;53.158;6.322;2022-09-01T04:31:04;13.50;99.90
53152;DHT22;39234;53.158;6.322;2022-09-01T04:33:32;13.50;99.90
53152;DHT22;39234;53.158;6.322;2022-09-01T04:36:23;13.30;99.90
53152;DHT22;39234;53.158;6.322;2022-09-01T04:38:58;13.40;99.90
53152;DHT22;39234;53.158;6.322;2022-09-01T04:41:30;13.60;99.90
53152;DHT22;39234;53.158;6.322;2022-09-01T04:43:58;13.60;99.90
53152;DHT22;39234;53.158;6.322;2022-09-01T04:46:26;13.20;99.90
53152;DHT22;39234;53.158;6.322;2022-09-01T04:48:56;13.20;99.90
53152;DHT22;39234;53.158;6.322;2022-09-01T04:51:23;13.20;99.90
53152;DHT22;39234;53.158;6.322;2022-09-01T04:53:55;13.40;99.90
53152;DHT22;39234;53.158;6.322;2022-09-01T04:56:23;13.20;99.90
53152;DHT22;39234;53.158;6.322;2022-09-01T04:58:50;13.20;99.90
53152;DHT22;39234;53.158;6.322;2022-09-01T05:01:19;13.20;99.90
53152;DHT22;39234;53.158;6.322;2022-09-01T05:03:46;13.20;99.90
53152;DHT22;39234;53.158;6.322;2022-09-01T05:06:23;13.10;99.90
53152;DHT22;39234;53.158;6.322;2022-09-01T05:08:49;13.30;99.90
53152;DHT22;39234;53.158;6.322;2022-09-01T05:11:16;13.30;99.90
53152;DHT22;39234;53.158;6.322;2022-09-01T05:13:45;13.20;99.90
53152;DHT22;39234;53.158;6.322;2022-09-01T05:16:13;13.20;99.90
53152;DHT22;39234;53.158;6.322;2022-09-01T05:18:42;13.30;99.90
53152;DHT22;39234;53.158;6.322;2022-09-01T05:21:15;13.30;99.90
53152;DHT22;39234;53.158;6.322;2022-09-01T05:23:45;13.20;99.90
53152;DHT22;39234;53.158;6.322;2022-09-01T05:26:21;13.30;99.90
53152;DHT22;39234;53.158;6.322;2022-09-01T05:28:50;13.30;99.90
53152;DHT22;39234;53.158;6.322;2022-09-01T05:31:18;13.20;99.90
53152;DHT22;39234;53.158;6.322;2022-09-01T05:33:45;13.50;99.90
53152;DHT22;39234;53.158;6.322;2022-09-01T05:36:15;13.30;99.90
53152;DHT22;39234;53.158;6.322;2022-09-01T05:38:42;13.10;99.90
53152;DHT22;39234;53.158;6.322;2022-09-01T05:41:11;13.40;99.90
53152;DHT22;39234;53.158;6.322;2022-09-01T05:43:40;13.30;99.90
53152;DHT22;39234;53.158;6.322;2022-09-01T05:46:11;13.30;99.90
53152;DHT22;39234;53.158;6.322;2022-09-01T05:48:37;13.60;99.90
53152;DHT22;39234;53.158;6.322;2022-09-01T05:51:09;13.90;99.90
53152;DHT22;39234;53.158;6.322;2022-09-01T05:53:35;13.70;99.90
53152;DHT22;39234;53.158;6.322;2022-09-01T05:56:06;13.40;99.90
53152;DHT22;39234;53.158;6.322;2022-09-01T05:58:34;13.50;99.90
53152;DHT22;39234;53.158;6.322;2022-09-01T06:01:01;13.70;99.90
53152;DHT22;39234;53.158;6.322;2022-09-01T06:03:27;14.00;99.90
53152;DHT22;39234;53.158;6.322;2022-09-01T06:05:54;14.10;99.90
53152;DHT22;39234;53.158;6.322;2022-09-01T06:08:22;14.10;99.90
53152;DHT22;39234;53.158;6.322;2022-09-01T06:10:48;14.30;99.90
53152;DHT22;39234;53.158;6.322;2022-09-01T06:13:16;14.10;99.90
53152;DHT22;39234;53.158;6.322;2022-09-01T06:15:43;14.60;99.90
53152;DHT22;39234;53.158;6.322;2022-09-01T06:18:10;16.10;99.90
53152;DHT22;39234;53.158;6.322;2022-09-01T06:20:45;17.50;99.90
53152;DHT22;39234;53.158;6.322;2022-09-01T06:23:12;18.70;99.90
53152;DHT22;39234;53.158;6.322;2022-09-01T06:25:46;20.10;99.90
53152;DHT22;39234;53.158;6.322;2022-09-01T06:28:13;21.30;99.90
53152;DHT22;39234;53.158;6.322;2022-09-01T06:30:40;22.00;99.90
53152;DHT22;39234;53.158;6.322;2022-09-01T06:33:07;21.70;99.90
53152;DHT22;39234;53.158;6.322;2022-09-01T06:35:36;20.70;99.90
53152;DHT22;39234;53.158;6.322;2022-09-01T06:38:04;20.50;99.90
53152;DHT22;39234;53.158;6.322;2022-09-01T06:40:32;20.80;99.90
53152;DHT22;39234;53.158;6.322;2022-09-01T06:42:58;21.60;99.90
53152;DHT22;39234;53.158;6.322;2022-09-01T06:45:43;22.30;99.90
53152;DHT22;39234;53.158;6.322;2022-09-01T06:48:09;22.70;99.90
53152;DHT22;39234;53.158;6.322;2022-09-01T06:50:40;23.20;99.90
53152;DHT22;39234;53.158;6.322;2022-09-01T06:53:07;22.80;99.90
53152;DHT22;39234;53.158;6.322;2022-09-01T06:55:38;22.10;99.90
53152;DHT22;39234;53.158;6.322;2022-09-01T06:58:06;22.20;99.90
53152;DHT22;39234;53.158;6.322;2022-09-01T07:00:37;22.60;99.90
53152;DHT22;39234;53.158;6.322;2022-09-01T07:03:07;24.00;99.90
53152;DHT22;39234;53.158;6.322;2022-09-01T07:05:37;24.30;99.90
53152;DHT22;39234;53.158;6.322;2022-09-01T07:08:04;24.70;99.90
53152;DHT22;39234;53.158;6.322;2022-09-01T07:10:40;25.00;99.90
53152;DHT22;39234;53.158;6.322;2022-09-01T07:13:12;24.50;99.90
53152;DHT22;39234;53.158;6.322;2022-09-01T07:15:42;23.20;99.90
53152;DHT22;39234;53.158;6.322;2022-09-01T07:18:08;22.60;99.90
53152;DHT22;39234;53.158;6.322;2022-09-01T07:20:35;21.60;99.90
53152;DHT22;39234;53.158;6.322;2022-09-01T07:23:04;21.20;99.90
53152;DHT22;39234;53.158;6.322;2022-09-01T07:25:30;21.10;99.90
53152;DHT22;39234;53.158;6.322;2022-09-01T07:28:00;21.00;99.90
53152;DHT22;39234;53.158;6.322;2022-09-01T07:30:26;20.10;99.90
53152;DHT22;39234;53.158;6.322;2022-09-01T07:32:53;20.20;99.90
53152;DHT22;39234;53.158;6.322;2022-09-01T07:35:20;20.30;99.90
53152;DHT22;39234;53.158;6.322;2022-09-01T07:37:47;20.50;99.90
53152;DHT22;39234;53.158;6.322;2022-09-01T07:40:16;20.60;99.90
53152;DHT22;39234;53.158;6.322;2022-09-01T07:42:44;20.70;99.90
53152;DHT22;39234;53.158;6.322;2022-09-01T07:45:13;20.90;99.90
53152;DHT22;39234;53.158;6.322;2022-09-01T07:47:39;20.90;99.90
53152;DHT22;39234;53.158;6.322;2022-09-01T07:50:08;21.00;99.90
53152;DHT22;39234;53.158;6.322;2022-09-01T07:52:35;20.70;99.90
53152;DHT22;39234;53.158;6.322;2022-09-01T07:55:13;20.30;99.90
53152;DHT22;39234;53.158;6.322;2022-09-01T07:57:40;20.30;99.90
53152;DHT22;39234;53.158;6.322;2022-09-01T08:00:14;20.60;99.90
53152;DHT22;39234;53.158;6.322;2022-09-01T08:02:41;20.80;99.90
53152;DHT22;39234;53.158;6.322;2022-09-01T08:05:14;20.70;99.90
53152;DHT22;39234;53.158;6.322;2022-09-01T08:07:42;20.80;99.90
53152;DHT22;39234;53.158;6.322;2022-09-01T08:10:08;20.70;99.90
53152;DHT22;39234;53.158;6.322;2022-09-01T08:12:34;20.40;99.90
53152;DHT22;39234;53.158;6.322;2022-09-01T08:15:02;20.00;99.90
53152;DHT22;39234;53.158;6.322;2022-09-01T08:17:28;20.10;99.90
53152;DHT22;39234;53.158;6.322;2022-09-01T08:19:54;19.70;99.90
53152;DHT22;39234;53.158;6.322;2022-09-01T08:22:19;19.70;99.90
53152;DHT22;39234;53.158;6.322;2022-09-01T08:24:48;19.80;99.90
53152;DHT22;39234;53.158;6.322;2022-09-01T08:27:15;19.70;99.90
53152;DHT22;39234;53.158;6.322;2022-09-01T08:29:40;19.70;99.90
53152;DHT22;39234;53.158;6.322;2022-09-01T08:32:06;19.80;99.90
53152;DHT22;39234;53.158;6.322;2022-09-01T08:34:32;19.80;99.90
53152;DHT22;39234;53.158;6.322;2022-09-01T08:36:58;19.70;99.90
53152;DHT22;39234;53.158;6.322;2022-09-01T08:39:24;19.70;99.90
53152;DHT22;39234;53.158;6.322;2022-09-01T08:47:18;19.50;99.90
53152;DHT22;39234;53.158;6.322;2022-09-01T08:49:45;17.80;99.90
53152;DHT22;39234;53.158;6.322;2022-09-01T08:57:50;19.70;99.90
53152;DHT22;39234;53.158;6.322;2022-09-01T09:00:21;19.60;99.90
53152;DHT22;39234;53.158;6.322;2022-09-01T09:06:05;19.60;99.90
53152;DHT22;39234;53.158;6.322;2022-09-01T09:16:56;19.90;99.90
53152;DHT22;39234;53.158;6.322;2022-09-01T09:19:43;19.60;99.90
53152;DHT22;39234;53.158;6.322;2022-09-01T09:22:11;19.90;99.90
53152;DHT22;39234;53.158;6.322;2022-09-01T09:25:09;19.90;99.90
53152;DHT22;39234;53.158;6.322;2022-09-01T09:27:38;19.80;99.90
53152;DHT22;39234;53.158;6.322;2022-09-01T09:30:30;19.80;99.90
53152;DHT22;39234;53.158;6.322;2022-09-01T09:32:59;19.90;99.90
53152;DHT22;39234;53.158;6.322;2022-09-01T09:35:44;20.10;99.90
53152;DHT22;39234;53.158;6.322;2022-09-01T09:44:04;21.10;99.90
53152;DHT22;39234;53.158;6.322;2022-09-01T09:51:32;20.70;99.90
53152;DHT22;39234;53.158;6.322;2022-09-01T09:54:12;21.00;99.90
53152;DHT22;39234;53.158;6.322;2022-09-01T09:56:40;20.80;99.90
53152;DHT22;39234;53.158;6.322;2022-09-01T09:59:32;20.90;99.90
53152;DHT22;39234;53.158;6.322;2022-09-01T10:01:59;21.00;99.90
53152;DHT22;39234;53.158;6.322;2022-09-01T10:04:39;21.00;99.90
53152;DHT22;39234;53.158;6.322;2022-09-01T10:07:32;21.10;99.90
53152;DHT22;39234;53.158;6.322;2022-09-01T10:10:02;21.50;99.90
53152;DHT22;39234;53.158;6.322;2022-09-01T10:12:29;21.70;99.90
53152;DHT22;39234;53.158;6.322;2022-09-01T10:15:08;21.80;99.90
53152;DHT22;39234;53.158;6.322;2022-09-01T10:17:38;22.00;99.90
53152;DHT22;39234;53.158;6.322;2022-09-01T10:20:15;21.80;99.90
53152;DHT22;39234;53.158;6.322;2022-09-01T10:22:42;21.80;99.90
53152;DHT22;39234;53.158;6.322;2022-09-01T10:25:25;21.10;99.90
53152;DHT22;39234;53.158;6.322;2022-09-01T10:28:07;22.10;99.90
53152;DHT22;39234;53.158;6.322;2022-09-01T10:30:36;22.30;99.90
53152;DHT22;39234;53.158;6.322;2022-09-01T10:33:07;22.30;99.90
53152;DHT22;39234;53.158;6.322;2022-09-01T10:35:35;22.60;99.90
53152;DHT22;39234;53.158;6.322;2022-09-01T10:38:07;22.90;99.90
53152;DHT22;39234;53.158;6.322;2022-09-01T10:40:37;24.90;99.90
53152;DHT22;39234;53.158;6.322;2022-09-01T10:45:49;23.10;99.90
53152;DHT22;39234;53.158;6.322;2022-09-01T10:48:29;23.30;99.90
53152;DHT22;39234;53.158;6.322;2022-09-01T10:53:48;23.00;99.90
53152;DHT22;39234;53.158;6.322;2022-09-01T11:04:15;22.10;99.90
53152;DHT22;39234;53.158;6.322;2022-09-01T11:09:23;23.10;99.90
53152;DHT22;39234;53.158;6.322;2022-09-01T11:12:07;23.40;99.90
53152;DHT22;39234;53.158;6.322;2022-09-01T11:14:56;23.60;99.90
53152;DHT22;39234;53.158;6.322;2022-09-01T11:22:44;23.10;99.90
53152;DHT22;39234;53.158;6.322;2022-09-01T11:25:31;22.70;99.90
53152;DHT22;39234;53.158;6.322;2022-09-01T11:38:54;23.60;99.90
53152;DHT22;39234;53.158;6.322;2022-09-01T11:41:23;24.00;99.50
53152;DHT22;39234;53.158;6.322;2022-09-01T11:43:54;23.90;99.30
53152;DHT22;39234;53.158;6.322;2022-09-01T11:46:34;23.80;99.30
53152;DHT22;39234;53.158;6.322;2022-09-01T11:49:06;24.50;99.70
53152;DHT22;39234;53.158;6.322;2022-09-01T11:51:45;24.20;98.70
53152;DHT22;39234;53.158;6.322;2022-09-01T11:54:12;24.50;97.80
53152;DHT22;39234;53.158;6.322;2022-09-01T11:56:38;24.50;97.50
53152;DHT22;39234;53.158;6.322;2022-09-01T11:59:04;24.00;97.70
53152;DHT22;39234;53.158;6.322;2022-09-01T12:01:34;24.50;97.50
53152;DHT22;39234;53.158;6.322;2022-09-01T12:04:24;24.30;97.00
53152;DHT22;39234;53.158;6.322;2022-09-01T12:07:05;24.50;96.80
53152;DHT22;39234;53.158;6.322;2022-09-01T12:09:41;24.10;96.70
53152;DHT22;39234;53.158;6.322;2022-09-01T12:15:13;23.80;97.00
53152;DHT22;39234;53.158;6.322;2022-09-01T12:17:41;23.70;97.30
53152;DHT22;39234;53.158;6.322;2022-09-01T12:20:27;23.80;96.60
53152;DHT22;39234;53.158;6.322;2022-09-01T12:22:53;23.80;97.40
53152;DHT22;39234;53.158;6.322;2022-09-01T12:25:28;23.90;97.40
53152;DHT22;39234;53.158;6.322;2022-09-01T12:27:55;23.90;97.00
53152;DHT22;39234;53.158;6.322;2022-09-01T12:30:22;23.90;97.40
53152;DHT22;39234;53.158;6.322;2022-09-01T12:32:48;23.90;97.30
53152;DHT22;39234;53.158;6.322;2022-09-01T12:35:24;24.00;96.50
53152;DHT22;39234;53.158;6.322;2022-09-01T12:37:51;23.70;96.20
53152;DHT22;39234;53.158;6.322;2022-09-01T12:40:34;24.10;95.90
53152;DHT22;39234;53.158;6.322;2022-09-01T12:43:00;23.50;95.90
53152;DHT22;39234;53.158;6.322;2022-09-01T12:45:44;23.50;96.30
53152;DHT22;39234;53.158;6.322;2022-09-01T12:48:29;23.10;96.60
53152;DHT22;39234;53.158;6.322;2022-09-01T12:50:57;22.80;97.10
53152;DHT22;39234;53.158;6.322;2022-09-01T12:53:25;22.90;97.50
53152;DHT22;39234;53.158;6.322;2022-09-01T12:56:15;22.60;97.10
53152;DHT22;39234;53.158;6.322;2022-09-01T12:58:47;22.30;97.70
53152;DHT22;39234;53.158;6.322;2022-09-01T13:01:31;22.60;98.40
53152;DHT22;39234;53.158;6.322;2022-09-01T13:06:47;23.00;96.30
53152;DHT22;39234;53.158;6.322;2022-09-01T13:09:12;23.20;97.10
53152;DHT22;39234;53.158;6.322;2022-09-01T13:11:38;23.40;97.50
53152;DHT22;39234;53.158;6.322;2022-09-01T13:14:06;23.70;97.00
53152;DHT22;39234;53.158;6.322;2022-09-01T13:16:33;23.50;97.00
53152;DHT22;39234;53.158;6.322;2022-09-01T13:19:00;23.10;97.10
53152;DHT22;39234;53.158;6.322;2022-09-01T13:21:26;23.00;97.30
53152;DHT22;39234;53.158;6.322;2022-09-01T13:23:52;23.30;97.30
53152;DHT22;39234;53.158;6.322;2022-09-01T13:26:18;23.20;97.10
53152;DHT22;39234;53.158;6.322;2022-09-01T13:28:44;23.60;96.80
53152;DHT22;39234;53.158;6.322;2022-09-01T13:31:10;24.00;96.60
53152;DHT22;39234;53.158;6.322;2022-09-01T13:33:36;23.70;96.30
53152;DHT22;39234;53.158;6.322;2022-09-01T13:36:03;23.90;95.70
53152;DHT22;39234;53.158;6.322;2022-09-01T13:38:29;23.80;95.50
53152;DHT22;39234;53.158;6.322;2022-09-01T13:40:57;23.40;95.80
53152;DHT22;39234;53.158;6.322;2022-09-01T13:43:23;23.20;95.60
53152;DHT22;39234;53.158;6.322;2022-09-01T13:45:52;23.00;96.00
53152;DHT22;39234;53.158;6.322;2022-09-01T13:48:19;22.90;96.30
53152;DHT22;39234;53.158;6.322;2022-09-01T13:50:47;22.90;96.30
53152;DHT22;39234;53.158;6.322;2022-09-01T13:53:14;23.00;96.10
53152;DHT22;39234;53.158;6.322;2022-09-01T13:55:41;23.10;96.50
53152;DHT22;39234;53.158;6.322;2022-09-01T13:58:07;22.80;97.10
53152;DHT22;39234;53.158;6.322;2022-09-01T14:00:40;23.00;96.10
53152;DHT22;39234;53.158;6.322;2022-09-01T14:03:19;23.30;96.60
53152;DHT22;39234;53.158;6.322;2022-09-01T14:05:46;23.00;96.30
53152;DHT22;39234;53.158;6.322;2022-09-01T14:08:14;23.50;96.00
53152;DHT22;39234;53.158;6.322;2022-09-01T14:10:43;23.60;96.30
53152;DHT22;39234;53.158;6.322;2022-09-01T14:13:10;23.70;96.00
53152;DHT22;39234;53.158;6.322;2022-09-01T14:15:36;23.60;95.30
53152;DHT22;39234;53.158;6.322;2022-09-01T14:18:03;23.60;95.80
53152;DHT22;39234;53.158;6.322;2022-09-01T14:20:38;23.40;96.20
53152;DHT22;39234;53.158;6.322;2022-09-01T14:23:07;23.10;96.90
53152;DHT22;39234;53.158;6.322;2022-09-01T14:25:36;23.10;97.30
53152;DHT22;39234;53.158;6.322;2022-09-01T14:28:03;22.80;96.80
53152;DHT22;39234;53.158;6.322;2022-09-01T14:30:30;22.60;97.10
53152;DHT22;39234;53.158;6.322;2022-09-01T14:32:56;22.50;97.30
53152;DHT22;39234;53.158;6.322;2022-09-01T14:35:24;22.50;97.40
53152;DHT22;39234;53.158;6.322;2022-09-01T14:37:52;22.30;97.70
53152;DHT22;39234;53.158;6.322;2022-09-01T14:40:19;22.40;97.80
53152;DHT22;39234;53.158;6.322;2022-09-01T14:42:47;22.80;97.70
53152;DHT22;39234;53.158;6.322;2022-09-01T14:45:19;22.80;97.20
53152;DHT22;39234;53.158;6.322;2022-09-01T14:47:46;23.00;97.00
53152;DHT22;39234;53.158;6.322;2022-09-01T14:50:13;23.10;96.90
53152;DHT22;39234;53.158;6.322;2022-09-01T14:52:41;23.30;96.80
53152;DHT22;39234;53.158;6.322;2022-09-01T14:55:07;23.20;96.30
53152;DHT22;39234;53.158;6.322;2022-09-01T14:57:33;23.10;96.30
53152;DHT22;39234;53.158;6.322;2022-09-01T14:59:59;23.00;97.00
53152;DHT22;39234;53.158;6.322;2022-09-01T15:02:25;23.00;97.50
53152;DHT22;39234;53.158;6.322;2022-09-01T15:04:54;23.10;96.90
53152;DHT22;39234;53.158;6.322;2022-09-01T15:07:21;22.70;96.90
53152;DHT22;39234;53.158;6.322;2022-09-01T15:09:47;22.60;97.20
53152;DHT22;39234;53.158;6.322;2022-09-01T15:12:13;22.50;97.10
53152;DHT22;39234;53.158;6.322;2022-09-01T15:14:38;22.20;97.10
53152;DHT22;39234;53.158;6.322;2022-09-01T15:17:04;22.00;97.30
53152;DHT22;39234;53.158;6.322;2022-09-01T15:19:31;21.90;97.30
53152;DHT22;39234;53.158;6.322;2022-09-01T15:21:57;22.10;97.10
53152;DHT22;39234;53.158;6.322;2022-09-01T15:24:22;22.30;97.00
53152;DHT22;39234;53.158;6.322;2022-09-01T15:26:48;22.30;97.00
53152;DHT22;39234;53.158;6.322;2022-09-01T15:29:14;22.50;97.10
53152;DHT22;39234;53.158;6.322;2022-09-01T15:31:41;22.60;96.60
53152;DHT22;39234;53.158;6.322;2022-09-01T15:34:08;22.60;97.00
53152;DHT22;39234;53.158;6.322;2022-09-01T15:36:37;22.40;97.20
53152;DHT22;39234;53.158;6.322;2022-09-01T15:39:05;22.40;97.30
53152;DHT22;39234;53.158;6.322;2022-09-01T15:41:33;22.50;97.40
53152;DHT22;39234;53.158;6.322;2022-09-01T15:44:01;22.20;97.20
53152;DHT22;39234;53.158;6.322;2022-09-01T15:46:29;22.60;96.90
53152;DHT22;39234;53.158;6.322;2022-09-01T15:49:02;22.60;96.60
53152;DHT22;39234;53.158;6.322;2022-09-01T15:54:11;22.60;96.70
53152;DHT22;39234;53.158;6.322;2022-09-01T15:56:37;22.50;97.10
53152;DHT22;39234;53.158;6.322;2022-09-01T15:59:04;22.40;96.80
53152;DHT22;39234;53.158;6.322;2022-09-01T16:01:33;22.40;97.00
53152;DHT22;39234;53.158;6.322;2022-09-01T16:04:01;22.40;96.40
53152;DHT22;39234;53.158;6.322;2022-09-01T16:06:27;22.70;96.40
53152;DHT22;39234;53.158;6.322;2022-09-01T16:08:53;22.70;95.70
53152;DHT22;39234;53.158;6.322;2022-09-01T16:11:21;22.80;95.80
53152;DHT22;39234;53.158;6.322;2022-09-01T16:13:48;22.50;95.60
53152;DHT22;39234;53.158;6.322;2022-09-01T16:24:43;22.70;95.00
53152;DHT22;39234;53.158;6.322;2022-09-01T16:27:13;22.70;95.00
53152;DHT22;39234;53.158;6.322;2022-09-01T16:32:09;22.50;95.60
53152;DHT22;39234;53.158;6.322;2022-09-01T16:34:35;22.60;95.40
53152;DHT22;39234;53.158;6.322;2022-09-01T16:37:11;22.40;95.40
53152;DHT22;39234;53.158;6.322;2022-09-01T16:45:53;22.40;94.60
53152;DHT22;39234;53.158;6.322;2022-09-01T16:51:12;22.30;95.40
53152;DHT22;39234;53.158;6.322;2022-09-01T16:58:58;22.10;95.60
53152;DHT22;39234;53.158;6.322;2022-09-01T17:04:27;22.10;95.80
53152;DHT22;39234;53.158;6.322;2022-09-01T17:07:07;22.10;95.30
53152;DHT22;39234;53.158;6.322;2022-09-01T17:10:05;22.20;95.30
53152;DHT22;39234;53.158;6.322;2022-09-01T17:12:50;22.20;96.20
53152;DHT22;39234;53.158;6.322;2022-09-01T17:15:34;21.80;95.50
53152;DHT22;39234;53.158;6.322;2022-09-01T17:20:32;21.80;95.90
53152;DHT22;39234;53.158;6.322;2022-09-01T17:23:01;21.50;96.20
53152;DHT22;39234;53.158;6.322;2022-09-01T17:25:39;21.70;96.70
53152;DHT22;39234;53.158;6.322;2022-09-01T17:28:11;21.60;96.50
53152;DHT22;39234;53.158;6.322;2022-09-01T17:39:02;21.20;96.90
53152;DHT22;39234;53.158;6.322;2022-09-01T17:41:39;21.30;96.60
53152;DHT22;39234;53.158;6.322;2022-09-01T17:44:35;21.20;97.00